createdAt,value
2018-05-17T00:00:26.486Z,22.50
2018-05-17T00:02:54.045Z,19.03
2018-05-17T00:05:21.566Z,20.50
2018-05-17T00:07:49.870Z,21.47
2018-05-17T00:10:17.434Z,21.53
2018-05-17T00:12:44.954Z,20.73
2018-05-17T00:15:12.488Z,21.00
2018-05-17T00:17:40.034Z,21.53
2018-05-17T00:20:07.558Z,20.87
2018-05-17T00:22:35.085Z,20.97
2018-05-17T00:25:02.625Z,21.30
2018-05-17T00:27:30.248Z,25.23
2018-05-17T00:29:58.550Z,22.07
2018-05-17T00:32:26.858Z,23.03
2018-05-17T00:34:54.363Z,22.70
2018-05-17T00:37:21.880Z,22.00
2018-05-17T00:39:49.429Z,22.83
2018-05-17T00:42:17.705Z,26.83
2018-05-17T00:44:45.984Z,23.83
2018-05-17T00:47:14.293Z,22.80
2018-05-17T00:49:41.818Z,25.20
2018-05-17T00:52:10.099Z,22.57
2018-05-17T00:54:38.419Z,22.33
2018-05-17T00:57:05.934Z,22.43
2018-05-17T00:59:33.466Z,24.10
2018-05-17T01:02:01.000Z,26.03
2018-05-17T01:04:28.582Z,23.07
2018-05-17T01:06:56.106Z,23.50
2018-05-17T01:09:24.524Z,23.90
2018-05-17T01:11:52.927Z,24.50
2018-05-17T01:14:20.460Z,22.73
2018-05-17T01:16:48.005Z,22.80
2018-05-17T01:19:16.289Z,23.80
2018-05-17T01:21:44.566Z,23.60
2018-05-17T01:24:12.864Z,22.50
2018-05-17T01:26:41.146Z,28.43
2018-05-17T01:29:09.618Z,24.47
2018-05-17T01:31:37.942Z,24.13
2018-05-17T01:34:05.481Z,24.77
2018-05-17T01:36:33.010Z,27.13
2018-05-17T01:39:00.559Z,22.07
2018-05-17T01:41:28.115Z,23.13
2018-05-17T01:43:55.621Z,22.10
2018-05-17T01:46:23.935Z,23.17
2018-05-17T01:48:51.758Z,23.33
2018-05-17T01:51:19.280Z,23.27
2018-05-17T01:53:46.831Z,23.13
2018-05-17T01:56:14.355Z,24.03
2018-05-17T01:58:42.633Z,21.20
2018-05-17T02:01:10.171Z,24.00
2018-05-17T02:03:37.689Z,23.37
2018-05-17T02:06:06.007Z,21.90
2018-05-17T02:08:33.560Z,22.73
2018-05-17T02:11:01.232Z,24.10
2018-05-17T02:13:28.755Z,22.00
2018-05-17T02:15:57.063Z,23.67
2018-05-17T02:18:24.589Z,22.77
2018-05-17T02:20:52.113Z,23.67
2018-05-17T02:23:19.654Z,23.47
2018-05-17T02:25:47.172Z,21.70
2018-05-17T02:28:14.689Z,24.27
2018-05-17T02:30:42.282Z,21.67
2018-05-17T02:33:09.797Z,21.37
2018-05-17T02:35:37.314Z,22.77
2018-05-17T02:38:04.858Z,21.57
2018-05-17T02:40:32.382Z,23.23
2018-05-17T02:43:00.682Z,23.07
2018-05-17T02:45:28.230Z,22.10
2018-05-17T02:47:55.757Z,20.73
2018-05-17T02:50:23.293Z,23.23
2018-05-17T02:52:50.839Z,22.20
2018-05-17T02:55:18.362Z,21.80
2018-05-17T02:57:45.891Z,20.97
2018-05-17T03:00:13.439Z,21.10
2018-05-17T03:02:40.957Z,22.23
2018-05-17T03:05:09.985Z,20.83
2018-05-17T03:07:37.541Z,21.67
2018-05-17T03:10:05.816Z,24.03
2018-05-17T03:12:34.093Z,21.53
2018-05-17T03:15:02.413Z,22.77
2018-05-17T03:17:29.950Z,22.77
2018-05-17T03:19:58.245Z,20.87
2018-05-17T03:22:25.777Z,22.97
2018-05-17T03:24:53.297Z,21.37
2018-05-17T03:27:20.826Z,22.63
2018-05-17T03:29:49.138Z,20.90
2018-05-17T03:32:16.720Z,19.97
2018-05-17T03:34:44.241Z,20.63
2018-05-17T03:37:11.783Z,19.17
2018-05-17T03:39:40.069Z,21.43
2018-05-17T03:42:08.366Z,21.90
2018-05-17T03:44:36.768Z,20.07
2018-05-17T03:47:04.291Z,21.70
2018-05-17T03:49:32.585Z,20.57
2018-05-17T03:52:00.895Z,19.73
2018-05-17T03:54:28.410Z,20.37
2018-05-17T03:56:55.933Z,20.13
2018-05-17T03:59:23.495Z,20.23
2018-05-17T04:02:02.993Z,20.27
2018-05-17T04:04:42.407Z,17.60
2018-05-17T04:07:09.945Z,19.30
2018-05-17T04:09:37.458Z,20.80
2018-05-17T04:12:05.758Z,19.17
2018-05-17T04:17:07.334Z,20.93
2018-05-17T04:19:34.857Z,18.43
2018-05-17T04:22:03.885Z,19.93
2018-05-17T04:24:32.187Z,19.00
2018-05-17T04:26:59.778Z,20.13
2018-05-17T04:29:27.294Z,21.03
2018-05-17T04:31:55.685Z,18.20
2018-05-17T04:34:24.005Z,20.03
2018-05-17T04:36:51.521Z,20.13
2018-05-17T04:39:19.837Z,19.87
2018-05-17T04:41:47.349Z,18.30
2018-05-17T04:44:15.652Z,20.10
2018-05-17T04:46:43.948Z,20.30
2018-05-17T04:49:11.544Z,20.87
2018-05-17T04:51:38.993Z,20.33
2018-05-17T04:54:06.557Z,19.27
2018-05-17T04:56:34.083Z,18.70
2018-05-17T04:59:02.393Z,19.10
2018-05-17T05:01:29.949Z,20.23
2018-05-17T05:03:57.541Z,19.73
2018-05-17T05:06:25.065Z,18.30
2018-05-17T05:08:53.373Z,18.17
2018-05-17T05:11:20.904Z,20.93
2018-05-17T05:13:49.193Z,17.50
2018-05-17T05:16:17.513Z,18.93
2018-05-17T05:18:45.078Z,18.30
2018-05-17T05:21:12.627Z,19.47
2018-05-17T05:23:40.165Z,19.03
2018-05-17T05:26:08.460Z,18.40
2018-05-17T05:28:35.986Z,18.27
2018-05-17T05:31:03.601Z,17.93
2018-05-17T05:33:31.122Z,18.13
2018-05-17T05:35:59.516Z,18.80
2018-05-17T05:38:27.062Z,19.60
2018-05-17T05:40:56.085Z,21.20
2018-05-17T05:43:24.382Z,18.03
2018-05-17T05:45:52.707Z,18.23
2018-05-17T05:48:20.226Z,18.47
2018-05-17T05:50:48.533Z,19.57
2018-05-17T05:53:16.061Z,20.00
2018-05-17T05:55:44.411Z,19.27
2018-05-17T05:58:11.935Z,20.43
2018-05-17T06:00:39.485Z,20.87
2018-05-17T06:03:08.199Z,20.50
2018-05-17T06:05:35.767Z,21.27
2018-05-17T06:08:03.319Z,20.77
2018-05-17T06:10:30.845Z,21.77
2018-05-17T06:12:59.159Z,20.50
2018-05-17T06:15:26.712Z,20.73
2018-05-17T06:17:54.985Z,19.27
2018-05-17T06:20:23.274Z,22.60
2018-05-17T06:22:51.580Z,19.03
2018-05-17T06:25:19.098Z,21.40
2018-05-17T06:27:47.421Z,18.90
2018-05-17T06:30:14.986Z,16.73
2018-05-17T06:32:42.513Z,17.83
2018-05-17T06:35:10.814Z,18.93
2018-05-17T06:37:39.281Z,17.20
2018-05-17T06:40:06.750Z,16.53
2018-05-17T06:42:35.044Z,17.93
2018-05-17T06:45:03.357Z,17.83
2018-05-17T06:47:30.913Z,18.20
2018-05-17T06:49:58.449Z,17.07
2018-05-17T06:52:26.757Z,16.83
2018-05-17T06:54:54.281Z,15.87
2018-05-17T06:57:21.809Z,16.47
2018-05-17T06:59:49.371Z,15.67
2018-05-17T07:02:16.893Z,16.10
2018-05-17T07:04:45.169Z,17.07
2018-05-17T07:07:13.493Z,16.50
2018-05-17T07:09:41.011Z,18.67
2018-05-17T07:12:09.301Z,20.87
2018-05-17T07:14:37.616Z,18.90
2018-05-17T07:17:05.137Z,16.80
2018-05-17T07:19:33.426Z,17.30
2018-05-17T07:22:01.738Z,15.73
2018-05-17T07:24:29.281Z,15.50
2018-05-17T07:26:56.843Z,16.03
2018-05-17T07:29:24.432Z,17.00
2018-05-17T07:31:51.970Z,14.83
2018-05-17T07:34:20.246Z,18.10
2018-05-17T07:36:48.557Z,17.03
2018-05-17T07:39:16.246Z,16.87
2018-05-17T07:41:43.734Z,16.33
2018-05-17T07:44:11.268Z,15.67
2018-05-17T07:46:38.824Z,15.83
2018-05-17T07:49:06.374Z,17.23
2018-05-17T07:51:33.917Z,14.40
2018-05-17T07:54:02.200Z,16.20
2018-05-17T07:56:30.490Z,16.87
2018-05-17T07:58:58.041Z,14.37
2018-05-17T08:01:26.329Z,15.23
2018-05-17T08:03:54.623Z,14.70
2018-05-17T08:06:22.165Z,15.97
2018-05-17T08:08:50.449Z,15.90
2018-05-17T08:11:18.763Z,14.67
2018-05-17T08:13:47.113Z,15.33
2018-05-17T08:16:15.398Z,16.10
2018-05-17T08:18:43.681Z,15.20
2018-05-17T08:21:11.997Z,17.33
2018-05-17T08:23:39.549Z,17.10
2018-05-17T08:26:07.832Z,18.97
2018-05-17T08:28:35.389Z,16.17
2018-05-17T08:31:02.915Z,15.93
2018-05-17T08:33:30.433Z,15.27
2018-05-17T08:35:57.966Z,17.13
2018-05-17T08:38:26.238Z,16.33
2018-05-17T08:40:54.770Z,15.93
2018-05-17T08:43:22.314Z,16.30
2018-05-17T08:45:49.825Z,18.17
2018-05-17T08:48:17.346Z,20.10
2018-05-17T08:50:44.901Z,16.93
2018-05-17T08:53:12.462Z,18.50
2018-05-17T08:55:40.089Z,19.93
2018-05-17T08:58:09.151Z,18.60
2018-05-17T09:00:36.717Z,17.27
2018-05-17T09:03:04.250Z,18.10
2018-05-17T09:05:32.665Z,18.37
2018-05-17T09:08:00.194Z,18.10
2018-05-17T09:10:28.483Z,18.27
2018-05-17T09:12:56.045Z,17.10
2018-05-17T09:15:23.569Z,17.13
2018-05-17T09:17:51.108Z,17.07
2018-05-17T09:20:18.761Z,17.37
2018-05-17T09:22:46.174Z,17.77
2018-05-17T09:25:15.218Z,19.87
2018-05-17T09:27:42.749Z,17.23
2018-05-17T09:30:11.037Z,17.90
2018-05-17T09:32:39.326Z,18.07
2018-05-17T09:35:07.651Z,18.13
2018-05-17T09:37:35.166Z,17.10
2018-05-17T09:40:04.104Z,17.87
2018-05-17T09:42:31.741Z,16.73
2018-05-17T09:45:00.024Z,16.98
2018-05-17T09:47:28.163Z,16.20
2018-05-17T09:49:55.716Z,17.40
2018-05-17T09:52:23.240Z,16.17
2018-05-17T09:54:50.858Z,15.48
2018-05-17T09:57:18.344Z,15.98
2018-05-17T09:59:46.647Z,14.55
2018-05-17T10:02:14.166Z,15.40
2018-05-17T10:04:41.778Z,14.68
2018-05-17T10:07:09.297Z,15.02
2018-05-17T10:09:36.816Z,14.25
2018-05-17T10:12:04.370Z,15.60
2018-05-17T10:14:31.945Z,14.77
2018-05-17T10:17:00.203Z,16.07
2018-05-17T10:19:28.500Z,16.83
2018-05-17T10:21:56.036Z,16.90
2018-05-17T10:24:24.173Z,19.37
2018-05-17T10:26:51.718Z,18.63
2018-05-17T10:29:19.257Z,20.97
2018-05-17T10:31:46.856Z,21.57
2018-05-17T10:34:14.397Z,21.93
2018-05-17T10:36:41.954Z,21.93
2018-05-17T10:39:09.531Z,23.50
2018-05-17T10:41:37.076Z,22.57
2018-05-17T10:44:05.434Z,22.80
2018-05-17T10:46:32.954Z,24.37
2018-05-17T10:49:00.549Z,21.87
2018-05-17T10:51:28.089Z,22.73
2018-05-17T10:53:55.638Z,24.00
2018-05-17T10:56:23.205Z,24.57
2018-05-17T10:58:50.725Z,25.05
2018-05-17T11:01:18.260Z,24.53
2018-05-17T11:03:45.790Z,25.55
2018-05-17T11:06:13.314Z,27.08
2018-05-17T11:08:40.842Z,25.88
2018-05-17T11:11:08.392Z,24.50
2018-05-17T11:13:35.921Z,26.70
2018-05-17T11:16:04.254Z,25.13
2018-05-17T11:18:31.809Z,26.60
2018-05-17T11:20:59.330Z,28.37
2018-05-17T11:23:27.624Z,24.63
2018-05-17T11:25:55.941Z,26.47
2018-05-17T11:28:23.461Z,29.40
2018-05-17T11:30:51.754Z,27.07
2018-05-17T11:33:19.295Z,26.33
2018-05-17T11:35:47.606Z,23.83
2018-05-17T11:38:15.132Z,28.98
2018-05-17T11:40:44.201Z,24.52
2018-05-17T11:43:11.725Z,25.45
2018-05-17T11:45:40.053Z,23.92
2018-05-17T11:48:07.611Z,26.05
2018-05-17T11:50:35.126Z,23.70
2018-05-17T11:53:03.426Z,25.37
2018-05-17T11:55:30.985Z,26.35
2018-05-17T11:57:59.269Z,25.95
2018-05-17T12:00:27.567Z,24.40
2018-05-17T12:02:55.123Z,25.23
2018-05-17T12:05:22.664Z,26.70
2018-05-17T12:07:50.961Z,27.40
2018-05-17T12:10:18.493Z,24.98
2018-05-17T12:12:46.021Z,28.98
2018-05-17T12:15:13.542Z,26.33
2018-05-17T12:17:41.205Z,28.75
2018-05-17T12:20:09.494Z,27.52
2018-05-17T12:22:37.790Z,27.42
2018-05-17T12:25:05.329Z,28.87
2018-05-17T12:27:33.605Z,26.20
2018-05-17T12:30:01.897Z,27.35
2018-05-17T12:32:29.489Z,27.70
2018-05-17T12:34:57.006Z,25.77
2018-05-17T12:37:26.047Z,24.63
2018-05-17T12:39:53.664Z,26.98
2018-05-17T12:42:21.186Z,28.65
2018-05-17T12:44:49.713Z,25.88
2018-05-17T12:47:17.389Z,25.90
2018-05-17T12:49:46.420Z,23.50
2018-05-17T12:52:13.938Z,24.33
2018-05-17T12:54:41.482Z,24.33
2018-05-17T12:57:09.049Z,25.08
2018-05-17T12:59:36.566Z,23.52
2018-05-17T13:02:04.909Z,23.12
2018-05-17T13:04:32.438Z,25.48
2018-05-17T13:06:59.964Z,22.45
2018-05-17T13:09:28.301Z,23.27
2018-05-17T13:11:55.830Z,22.00
2018-05-17T13:14:23.357Z,24.67
2018-05-17T13:16:50.902Z,22.48
2018-05-17T13:19:18.421Z,21.90
2018-05-17T13:21:45.939Z,20.12
2018-05-17T13:24:13.491Z,20.00
2018-05-17T13:26:41.016Z,19.70
2018-05-17T13:29:08.562Z,18.65
2018-05-17T13:31:36.870Z,21.40
2018-05-17T13:34:04.390Z,18.73
2018-05-17T13:36:33.418Z,18.55
2018-05-17T13:39:01.722Z,18.60
2018-05-17T13:41:29.274Z,18.02
2018-05-17T13:43:56.797Z,16.92
2018-05-17T13:46:24.364Z,17.70
2018-05-17T13:48:52.751Z,16.77
2018-05-17T13:51:20.294Z,15.38
2018-05-17T13:53:47.846Z,14.68
2018-05-17T13:56:15.373Z,14.52
2018-05-17T13:58:43.653Z,13.02
2018-05-17T14:01:11.962Z,12.85
2018-05-17T14:03:39.485Z,13.40
2018-05-17T14:06:07.761Z,12.80
2018-05-17T14:08:35.341Z,12.48
2018-05-17T14:11:02.940Z,12.18
2018-05-17T14:13:30.496Z,12.80
2018-05-17T14:15:58.046Z,12.93
2018-05-17T14:18:25.570Z,14.35
2018-05-17T14:20:53.110Z,11.60
2018-05-17T14:23:20.687Z,11.90
2018-05-17T14:25:48.208Z,12.18
2018-05-17T14:28:15.727Z,11.90
2018-05-17T14:30:43.276Z,12.23
2018-05-17T14:33:10.829Z,10.82
2018-05-17T14:35:38.349Z,11.60
2018-05-17T14:38:06.769Z,11.30
2018-05-17T14:40:34.297Z,11.60
2018-05-17T14:43:02.585Z,11.65
2018-05-17T14:45:30.911Z,11.77
2018-05-17T14:47:58.446Z,10.30
2018-05-17T14:50:26.301Z,10.68
2018-05-17T14:52:54.625Z,10.45
2018-05-17T14:55:22.168Z,10.88
2018-05-17T14:57:49.677Z,10.63
2018-05-17T15:00:18.720Z,11.15
2018-05-17T15:02:46.282Z,11.07
2018-05-17T15:05:13.805Z,10.90
2018-05-17T15:07:41.346Z,11.02
2018-05-17T15:10:08.862Z,11.30
2018-05-17T15:12:37.145Z,11.50
2018-05-17T15:15:05.453Z,10.38
2018-05-17T15:17:32.966Z,10.10
2018-05-17T15:20:00.497Z,10.93
2018-05-17T15:22:28.033Z,10.13
2018-05-17T15:24:55.548Z,11.30
2018-05-17T15:27:23.171Z,10.93
2018-05-17T15:29:50.764Z,10.23
2018-05-17T15:32:19.001Z,10.63
2018-05-17T15:34:46.526Z,12.00
2018-05-17T15:37:14.157Z,12.02
2018-05-17T15:39:41.703Z,11.63
2018-05-17T15:42:09.299Z,13.02
2018-05-17T15:44:36.864Z,11.77
2018-05-17T15:47:04.389Z,13.02
2018-05-17T15:49:31.912Z,13.23
2018-05-17T15:51:59.507Z,13.95
2018-05-17T15:54:27.800Z,12.52
2018-05-17T15:56:56.094Z,11.70
2018-05-17T15:59:23.666Z,11.93
2018-05-17T16:01:51.181Z,11.10
2018-05-17T16:04:18.705Z,9.27
2018-05-17T16:06:46.245Z,7.90
2018-05-17T16:09:13.764Z,8.98
2018-05-17T16:11:41.284Z,8.48
2018-05-17T16:14:08.821Z,8.38
2018-05-17T16:16:37.127Z,8.40
2018-05-17T16:19:04.649Z,8.55
2018-05-17T16:21:32.962Z,8.40
2018-05-17T16:24:00.486Z,8.57
2018-05-17T16:26:27.999Z,8.52
2018-05-17T16:28:55.542Z,9.35
2018-05-17T16:31:23.834Z,8.52
2018-05-17T16:33:51.370Z,8.70
2018-05-17T16:36:18.970Z,8.15
2018-05-17T16:38:46.546Z,9.05
2018-05-17T16:41:14.066Z,9.40
2018-05-17T16:43:41.625Z,9.07
2018-05-17T16:46:09.149Z,8.90
2018-05-17T16:48:36.755Z,8.88
2018-05-17T16:51:05.020Z,9.65
2018-05-17T16:53:33.397Z,9.52
2018-05-17T16:56:00.918Z,9.32
2018-05-17T16:58:28.485Z,8.55
2018-05-17T17:00:56.043Z,11.12
2018-05-17T17:03:23.599Z,9.52
2018-05-17T17:05:51.912Z,10.52
2018-05-17T17:08:19.441Z,10.13
2018-05-17T17:10:47.727Z,9.57
2018-05-17T17:13:16.032Z,9.95
2018-05-17T17:15:43.609Z,10.43
2018-05-17T17:18:11.854Z,10.68
2018-05-17T17:20:40.149Z,10.55
2018-05-17T17:23:07.673Z,10.82
2018-05-17T17:25:35.960Z,9.73
2018-05-17T17:28:03.519Z,9.80
2018-05-17T17:30:31.813Z,11.10
2018-05-17T17:32:59.329Z,9.77
2018-05-17T17:35:26.887Z,10.57
2018-05-17T17:37:54.398Z,10.65
2018-05-17T17:40:21.910Z,10.48
2018-05-17T17:42:49.452Z,10.05
2018-05-17T17:45:16.998Z,10.52
2018-05-17T17:47:44.512Z,9.95
2018-05-17T17:50:12.043Z,9.63
2018-05-17T17:52:39.573Z,9.27
2018-05-17T17:55:07.180Z,9.43
2018-05-17T17:57:34.739Z,9.40
2018-05-17T18:00:03.106Z,9.48
2018-05-17T18:02:31.400Z,9.63
2018-05-17T18:04:59.716Z,8.52
2018-05-17T18:07:27.233Z,9.25
2018-05-17T18:09:55.522Z,8.85
2018-05-17T18:12:23.833Z,9.13
2018-05-17T18:14:51.362Z,9.30
2018-05-17T18:17:19.695Z,9.30
2018-05-17T18:19:47.333Z,9.70
2018-05-17T18:22:14.858Z,8.97
2018-05-17T18:24:43.981Z,10.13
2018-05-17T18:27:11.480Z,9.60
2018-05-17T18:29:38.997Z,9.90
2018-05-17T18:32:07.301Z,9.60
2018-05-17T18:34:34.833Z,10.67
2018-05-17T18:37:02.346Z,10.10
2018-05-17T18:39:29.862Z,9.40
2018-05-17T18:41:57.422Z,10.77
2018-05-17T18:44:25.709Z,10.17
2018-05-17T18:46:54.736Z,10.40
2018-05-17T18:49:23.241Z,10.43
2018-05-17T18:51:50.768Z,10.07
2018-05-17T18:54:19.047Z,11.10
2018-05-17T18:56:46.842Z,10.23
2018-05-17T18:59:14.363Z,11.10
2018-05-17T19:01:41.935Z,10.53
2018-05-17T19:04:09.430Z,10.00
2018-05-17T19:06:37.706Z,11.80
2018-05-17T19:09:06.012Z,11.10
2018-05-17T19:11:33.546Z,10.60
2018-05-17T19:14:01.840Z,12.03
2018-05-17T19:16:30.161Z,11.30
2018-05-17T19:18:57.806Z,11.03
2018-05-17T19:21:25.422Z,11.77
2018-05-17T19:23:52.943Z,12.00
2018-05-17T19:26:20.529Z,11.97
2018-05-17T19:28:48.054Z,11.90
2018-05-17T19:31:15.686Z,12.53
2018-05-17T19:33:44.061Z,11.30
2018-05-17T19:36:11.595Z,12.83
2018-05-17T19:38:39.205Z,12.10
2018-05-17T19:41:06.770Z,12.50
2018-05-17T19:43:35.188Z,13.47
2018-05-17T19:46:02.786Z,13.30
2018-05-17T19:48:30.343Z,12.77
2018-05-17T19:50:57.895Z,13.60
2018-05-17T19:53:25.514Z,13.03
2018-05-17T19:55:53.945Z,13.37
2018-05-17T19:58:21.681Z,13.27
2018-05-17T20:00:49.998Z,14.37
2018-05-17T20:03:17.659Z,13.73
2018-05-17T20:05:45.191Z,12.90
2018-05-17T20:08:13.549Z,13.17
2018-05-17T20:10:42.774Z,13.50
2018-05-17T20:13:11.137Z,13.47
2018-05-17T20:15:38.728Z,13.50
2018-05-17T20:18:07.051Z,13.10
2018-05-17T20:20:34.617Z,14.70
2018-05-17T20:23:02.203Z,14.83
2018-05-17T20:25:31.346Z,14.17
2018-05-17T20:27:59.072Z,14.60
2018-05-17T20:30:26.712Z,13.53
2018-05-17T20:32:54.288Z,13.47
2018-05-17T20:35:21.947Z,14.37
2018-05-17T20:37:50.014Z,13.30
2018-05-17T20:40:17.684Z,13.93
2018-05-17T20:42:45.291Z,13.80
2018-05-17T20:45:13.741Z,13.30
2018-05-17T20:47:41.621Z,13.40
2018-05-17T20:50:09.542Z,13.57
2018-05-17T20:52:37.090Z,13.03
2018-05-17T20:55:04.869Z,13.10
2018-05-17T20:57:33.287Z,12.10
2018-05-17T21:00:00.910Z,11.73
2018-05-17T21:02:28.615Z,12.20
2018-05-17T21:04:56.311Z,11.77
2018-05-17T21:07:24.182Z,12.30
2018-05-17T21:09:52.704Z,12.40
2018-05-17T21:12:20.653Z,12.53
2018-05-17T21:14:48.304Z,12.13
2018-05-17T21:17:16.120Z,11.83
2018-05-17T21:19:43.663Z,11.23
2018-05-17T21:22:12.010Z,11.30
2018-05-17T21:24:39.571Z,11.27
2018-05-17T21:27:07.174Z,10.83
2018-05-17T21:29:34.735Z,12.53
2018-05-17T22:15:44.583Z,8.80
2018-05-17T22:18:12.169Z,9.60
2018-05-17T22:20:39.679Z,8.43
2018-05-17T22:23:08.139Z,8.93
2018-05-17T22:25:35.750Z,8.80
2018-05-17T22:28:03.269Z,8.63
2018-05-17T22:30:31.573Z,8.37
2018-05-17T22:32:59.867Z,8.80
2018-05-17T22:35:27.385Z,8.53
2018-05-17T22:37:54.926Z,8.70
2018-05-17T22:40:22.436Z,8.50
2018-05-17T22:42:51.786Z,8.60
2018-05-17T22:45:19.333Z,8.60
2018-05-17T22:47:46.842Z,7.80
2018-05-17T22:50:14.366Z,8.77
2018-05-17T22:52:41.894Z,8.97
2018-05-17T22:55:10.203Z,8.50
2018-05-17T22:57:49.822Z,8.97
2018-05-17T23:00:17.311Z,8.83
2018-05-17T23:02:44.836Z,8.17
2018-05-17T23:05:13.170Z,8.67
2018-05-17T23:07:40.695Z,9.17
2018-05-17T23:10:08.975Z,8.67
2018-05-17T23:12:37.278Z,8.60
2018-05-17T23:15:04.850Z,7.93
2018-05-17T23:17:32.437Z,7.40
2018-05-17T23:19:59.993Z,8.53
2018-05-17T23:22:35.513Z,8.53
2018-05-17T23:25:03.809Z,8.70
2018-05-17T23:27:31.330Z,8.17
2018-05-17T23:29:59.628Z,8.23
2018-05-17T23:32:27.932Z,8.37
2018-05-17T23:34:55.446Z,7.57
2018-05-17T23:37:22.981Z,7.70
2018-05-17T23:39:50.610Z,7.53
2018-05-17T23:42:18.890Z,6.97
2018-05-17T23:44:47.182Z,6.90
2018-05-17T23:47:14.754Z,6.90
2018-05-17T23:49:42.285Z,7.43
2018-05-17T23:52:10.564Z,7.93
2018-05-17T23:54:38.113Z,7.33
2018-05-17T23:57:06.385Z,8.07
2018-05-17T23:59:33.914Z,7.50
